createdAt,value
2023-05-10T00:02:25.054Z,96714.44
2023-05-10T00:04:57.120Z,96721.34
2023-05-10T00:07:28.830Z,96730.22
2023-05-10T00:10:00.522Z,96724.41
2023-05-10T00:12:32.190Z,96709.53
2023-05-10T00:15:05.104Z,96713.81
2023-05-10T00:17:36.734Z,96725.81
2023-05-10T00:20:08.763Z,96718.16
2023-05-10T00:22:40.373Z,96723.25
2023-05-10T00:25:12.037Z,96713.78
2023-05-10T00:27:43.758Z,96713.34
2023-05-10T00:30:16.801Z,96714.78
2023-05-10T00:32:48.630Z,96709.38
2023-05-10T00:35:20.342Z,96704.19
2023-05-10T00:37:53.191Z,96705.81
2023-05-10T00:40:26.046Z,96725.91
2023-05-10T00:43:02.023Z,96715.34
2023-05-10T00:45:36.437Z,96712.84
2023-05-10T00:48:08.256Z,96707.03
2023-05-10T00:50:40.385Z,96708.28
2023-05-10T00:53:12.099Z,96705.94
2023-05-10T00:55:44.249Z,96711.44
2023-05-10T00:58:16.117Z,96704.34
2023-05-10T01:00:48.466Z,96703.72
2023-05-10T01:03:20.753Z,96708.50
2023-05-10T01:05:53.780Z,96715.22
2023-05-10T01:08:27.045Z,96707.19
2023-05-10T01:10:59.677Z,96701.22
2023-05-10T01:13:39.771Z,96707.50
2023-05-10T01:16:12.030Z,96712.53
2023-05-10T01:18:45.770Z,96709.97
2023-05-10T01:21:24.300Z,96713.69
2023-05-10T01:24:11.435Z,96707.97
2023-05-10T01:27:01.120Z,96710.66
2023-05-10T01:29:48.125Z,96704.66
2023-05-10T01:32:27.515Z,96702.19
2023-05-10T01:35:18.109Z,96709.84
2023-05-10T01:38:17.016Z,96711.03
2023-05-10T01:41:18.227Z,96718.75
2023-05-10T01:44:11.779Z,96718.31
2023-05-10T01:46:54.149Z,96723.19
2023-05-10T01:49:37.813Z,96726.16
2023-05-10T01:52:14.959Z,96726.03
2023-05-10T01:54:57.810Z,96727.41
2023-05-10T01:57:35.183Z,96733.56
2023-05-10T02:00:11.637Z,96730.41
2023-05-10T02:02:49.966Z,96737.72
2023-05-10T02:05:25.173Z,96732.00
2023-05-10T02:08:00.619Z,96724.25
2023-05-10T02:10:35.267Z,96725.38
2023-05-10T02:13:10.972Z,96730.41
2023-05-10T02:15:47.750Z,96729.94
2023-05-10T02:18:20.459Z,96736.09
2023-05-10T02:20:56.341Z,96726.91
2023-05-10T02:23:30.271Z,96729.63
2023-05-10T02:26:04.877Z,96726.25
2023-05-10T02:28:38.399Z,96727.09
2023-05-10T02:31:12.070Z,96735.97
2023-05-10T02:33:46.960Z,96735.44
2023-05-10T02:36:22.089Z,96746.19
2023-05-10T02:38:54.317Z,96747.47
2023-05-10T02:41:27.606Z,96744.75
2023-05-10T02:44:03.511Z,96751.03
2023-05-10T02:46:35.227Z,96755.22
2023-05-10T02:49:07.478Z,96754.97
2023-05-10T02:51:45.176Z,96761.41
2023-05-10T02:54:21.017Z,96766.72
2023-05-10T02:56:58.553Z,96764.09
2023-05-10T02:59:30.256Z,96756.28
2023-05-10T03:02:02.842Z,96757.38
2023-05-10T03:04:34.780Z,96765.28
2023-05-10T03:07:07.144Z,96766.66
2023-05-10T03:09:38.820Z,96761.16
2023-05-10T03:12:31.244Z,96759.00
2023-05-10T03:15:33.648Z,96762.94
2023-05-10T03:18:15.041Z,96759.41
2023-05-10T03:20:56.278Z,96769.53
2023-05-10T03:23:36.349Z,96757.91
2023-05-10T03:26:09.689Z,96760.91
2023-05-10T03:28:43.076Z,96761.53
2023-05-10T03:31:15.698Z,96768.13
2023-05-10T03:33:52.866Z,96765.44
2023-05-10T03:36:29.884Z,96765.63
2023-05-10T03:39:01.723Z,96771.88
2023-05-10T03:41:33.402Z,96771.78
2023-05-10T03:44:05.538Z,96768.88
2023-05-10T03:46:37.375Z,96778.28
2023-05-10T03:49:09.736Z,96780.97
2023-05-10T03:51:42.223Z,96772.84
2023-05-10T03:54:14.412Z,96777.38
2023-05-10T03:56:47.382Z,96769.75
2023-05-10T03:59:20.112Z,96774.28
2023-05-10T04:01:52.526Z,96772.28
2023-05-10T04:04:25.062Z,96770.91
2023-05-10T04:06:56.923Z,96775.66
2023-05-10T04:09:29.549Z,96770.47
2023-05-10T04:12:03.063Z,96773.53
2023-05-10T04:14:36.684Z,96770.81
2023-05-10T04:17:09.017Z,96777.41
2023-05-10T04:19:40.765Z,96773.84
2023-05-10T04:22:13.254Z,96780.69
2023-05-10T04:24:45.642Z,96772.38
2023-05-10T04:27:17.580Z,96765.03
2023-05-10T04:29:50.818Z,96771.44
2023-05-10T04:32:22.651Z,96765.66
2023-05-10T04:34:54.550Z,96777.13
2023-05-10T04:37:26.416Z,96773.28
2023-05-10T04:39:58.592Z,96775.25
2023-05-10T04:42:30.285Z,96776.75
2023-05-10T04:45:01.955Z,96770.56
2023-05-10T04:47:33.804Z,96769.41
2023-05-10T04:50:06.070Z,96770.56
2023-05-10T04:52:37.691Z,96780.34
2023-05-10T04:55:09.500Z,96774.31
2023-05-10T04:57:41.331Z,96768.41
2023-05-10T05:00:13.589Z,96773.44
2023-05-10T05:02:45.838Z,96774.78
2023-05-10T05:05:17.454Z,96780.56
2023-05-10T05:07:49.050Z,96777.97
2023-05-10T05:10:20.718Z,96776.69
2023-05-10T05:12:52.450Z,96777.47
2023-05-10T05:15:24.308Z,96782.75
2023-05-10T05:17:55.985Z,96777.19
2023-05-10T05:20:27.718Z,96784.31
2023-05-10T05:22:59.387Z,96787.75
2023-05-10T05:25:31.659Z,96780.25
2023-05-10T05:28:03.492Z,96784.84
2023-05-10T05:30:35.758Z,96775.63
2023-05-10T05:33:07.560Z,96783.69
2023-05-10T05:35:39.324Z,96789.25
2023-05-10T05:38:11.189Z,96791.88
2023-05-10T05:40:43.260Z,96787.91
2023-05-10T05:43:15.106Z,96791.66
2023-05-10T05:45:46.840Z,96796.97
2023-05-10T05:48:18.630Z,96789.09
2023-05-10T05:50:50.364Z,96788.16
2023-05-10T05:53:22.609Z,96792.31
2023-05-10T05:55:58.121Z,96792.53
2023-05-10T05:58:30.554Z,96794.19
2023-05-10T06:01:02.718Z,96803.22
2023-05-10T06:03:34.586Z,96801.50
2023-05-10T06:06:06.769Z,96797.94
2023-05-10T06:08:38.826Z,96797.81
2023-05-10T06:11:10.731Z,96799.38
2023-05-10T06:13:42.974Z,96793.91
2023-05-10T06:16:15.082Z,96793.59
2023-05-10T06:18:46.912Z,96795.06
2023-05-10T06:21:19.019Z,96789.72
2023-05-10T06:23:51.213Z,96794.22
2023-05-10T06:26:23.372Z,96804.09
2023-05-10T06:28:55.439Z,96793.94
2023-05-10T06:31:27.499Z,96801.16
2023-05-10T06:33:59.888Z,96803.56
2023-05-10T06:36:36.946Z,96797.06
2023-05-10T06:39:09.968Z,96807.41
2023-05-10T06:41:41.967Z,96803.88
2023-05-10T06:44:14.186Z,96810.84
2023-05-10T06:46:49.436Z,96807.31
2023-05-10T06:49:22.276Z,96810.88
2023-05-10T06:51:54.593Z,96813.22
2023-05-10T06:54:26.730Z,96813.34
2023-05-10T06:57:01.913Z,96806.91
2023-05-10T06:59:37.058Z,96810.38
2023-05-10T07:02:08.960Z,96819.03
2023-05-10T07:04:41.426Z,96820.56
2023-05-10T07:07:13.429Z,96824.47
2023-05-10T07:09:45.311Z,96821.75
2023-05-10T07:12:17.041Z,96819.78
2023-05-10T07:14:48.809Z,96818.59
2023-05-10T07:17:20.768Z,96814.44
2023-05-10T07:19:52.665Z,96822.81
2023-05-10T07:22:24.371Z,96820.19
2023-05-10T07:24:55.949Z,96821.56
2023-05-10T07:27:27.717Z,96819.22
2023-05-10T07:29:59.506Z,96819.13
2023-05-10T07:32:31.295Z,96829.06
2023-05-10T07:35:02.958Z,96829.06
2023-05-10T07:37:34.619Z,96822.28
2023-05-10T07:40:07.071Z,96837.78
2023-05-10T07:42:38.806Z,96838.06
2023-05-10T07:45:10.675Z,96841.63
2023-05-10T07:47:42.373Z,96842.31
2023-05-10T07:50:14.988Z,96843.22
2023-05-10T07:52:46.769Z,96848.66
2023-05-10T07:55:20.141Z,96838.50
2023-05-10T07:57:51.950Z,96842.06
2023-05-10T08:00:23.732Z,96843.94
2023-05-10T08:02:55.792Z,96837.88
2023-05-10T08:05:27.799Z,96839.06
2023-05-10T08:07:59.606Z,96837.13
2023-05-10T08:10:31.339Z,96840.16
2023-05-10T08:13:03.311Z,96839.66
2023-05-10T08:15:35.069Z,96844.97
2023-05-10T08:18:07.052Z,96848.50
2023-05-10T08:20:38.710Z,96840.47
2023-05-10T08:23:13.071Z,96846.91
2023-05-10T08:25:45.029Z,96851.00
2023-05-10T08:28:17.237Z,96854.50
2023-05-10T08:30:56.310Z,96846.13
2023-05-10T08:33:28.695Z,96847.06
2023-05-10T08:36:00.807Z,96840.72
2023-05-10T08:38:33.633Z,96842.59
2023-05-10T08:41:06.634Z,96851.88
2023-05-10T08:43:39.799Z,96846.66
2023-05-10T08:46:17.054Z,96851.00
2023-05-10T08:48:51.762Z,96849.94
2023-05-10T08:51:25.920Z,96854.78
2023-05-10T08:53:58.299Z,96858.72
2023-05-10T08:56:30.318Z,96864.25
2023-05-10T08:59:02.585Z,96866.34
2023-05-10T09:01:37.689Z,96868.97
2023-05-10T09:04:13.430Z,96861.31
2023-05-10T09:06:47.298Z,96857.00
2023-05-10T09:09:21.227Z,96857.44
2023-05-10T09:11:55.317Z,96866.38
2023-05-10T09:14:28.388Z,96862.09
2023-05-10T09:17:02.273Z,96857.63
2023-05-10T09:19:35.115Z,96860.13
2023-05-10T09:22:07.300Z,96869.97
2023-05-10T09:24:38.871Z,96874.06
2023-05-10T09:27:10.490Z,96868.56
2023-05-10T09:29:44.936Z,96863.03
2023-05-10T09:32:16.576Z,96869.91
2023-05-10T09:34:50.694Z,96865.59
2023-05-10T09:37:30.705Z,96863.31
2023-05-10T09:40:05.849Z,96861.00
2023-05-10T09:42:37.502Z,96863.94
2023-05-10T09:45:09.656Z,96860.91
2023-05-10T09:47:41.832Z,96862.09
2023-05-10T09:50:13.883Z,96865.34
2023-05-10T09:52:54.184Z,96852.75
2023-05-10T09:55:43.871Z,96866.72
2023-05-10T09:58:15.983Z,96851.09
2023-05-10T10:00:48.408Z,96851.19
2023-05-10T10:03:23.287Z,96837.72
2023-05-10T10:05:55.651Z,96846.38
2023-05-10T10:08:27.986Z,96844.31
2023-05-10T10:11:00.459Z,96844.09
2023-05-10T10:13:32.435Z,96850.41
2023-05-10T10:16:05.110Z,96853.00
2023-05-10T10:18:37.860Z,96846.69
2023-05-10T10:21:10.099Z,96848.50
2023-05-10T10:23:41.942Z,96856.16
2023-05-10T10:26:16.238Z,96847.34
2023-05-10T10:29:15.462Z,96853.13
2023-05-10T10:32:11.833Z,96853.66
2023-05-10T10:34:43.689Z,96856.75
2023-05-10T10:37:15.986Z,96846.13
2023-05-10T10:39:50.071Z,96848.28
2023-05-10T10:42:47.882Z,96846.44
2023-05-10T10:45:21.342Z,96845.16
2023-05-10T10:48:25.791Z,96840.31
2023-05-10T10:50:58.508Z,96848.97
2023-05-10T10:53:30.635Z,96843.97
2023-05-10T10:56:08.905Z,96837.22
2023-05-10T10:58:41.032Z,96840.25
2023-05-10T11:01:16.587Z,96836.41
2023-05-10T11:04:04.357Z,96830.50
2023-05-10T11:06:37.261Z,96825.06
2023-05-10T11:09:13.059Z,96833.44
2023-05-10T11:11:53.691Z,96835.69
2023-05-10T11:14:26.606Z,96834.75
2023-05-10T11:16:59.438Z,96825.47
2023-05-10T11:19:31.141Z,96828.41
2023-05-10T11:22:06.022Z,96833.84
2023-05-10T11:24:38.088Z,96837.94
2023-05-10T11:27:12.129Z,96829.84
2023-05-10T11:29:44.338Z,96830.00
2023-05-10T11:32:16.518Z,96831.81
2023-05-10T11:34:50.097Z,96824.91
2023-05-10T11:37:22.103Z,96834.59
2023-05-10T11:39:55.887Z,96839.59
2023-05-10T11:42:29.489Z,96827.97
2023-05-10T11:45:02.144Z,96840.03
2023-05-10T11:47:33.878Z,96835.38
2023-05-10T11:50:06.541Z,96832.84
2023-05-10T11:52:38.222Z,96826.13
2023-05-10T11:55:10.082Z,96830.69
2023-05-10T11:57:41.732Z,96831.47
2023-05-10T12:00:14.905Z,96831.50
2023-05-10T12:02:49.125Z,96829.91
2023-05-10T12:05:20.906Z,96824.56
2023-05-10T12:07:52.583Z,96836.97
2023-05-10T12:10:27.751Z,96830.66
2023-05-10T12:12:59.379Z,96833.13
2023-05-10T12:15:31.209Z,96835.81
2023-05-10T12:18:02.818Z,96832.97
2023-05-10T12:20:34.545Z,96840.66
2023-05-10T12:23:06.753Z,96838.19
2023-05-10T12:25:39.599Z,96840.38
2023-05-10T12:28:11.505Z,96833.94
2023-05-10T12:30:43.214Z,96836.44
2023-05-10T12:33:15.443Z,96840.78
2023-05-10T12:35:49.971Z,96848.78
2023-05-10T12:38:33.713Z,96845.59
2023-05-10T12:41:11.567Z,96849.50
2023-05-10T12:43:43.329Z,96846.25
2023-05-10T12:46:18.173Z,96840.19
2023-05-10T12:48:57.540Z,96837.59
2023-05-10T12:51:35.367Z,96839.94
2023-05-10T12:54:07.348Z,96842.41
2023-05-10T12:56:39.123Z,96835.91
2023-05-10T12:59:11.207Z,96838.44
2023-05-10T13:01:42.984Z,96839.16
2023-05-10T13:04:15.255Z,96835.09
2023-05-10T13:06:48.742Z,96841.72
2023-05-10T13:09:20.846Z,96839.66
2023-05-10T13:11:52.747Z,96838.97
2023-05-10T13:14:25.543Z,96833.31
2023-05-10T13:16:57.826Z,96830.59
2023-05-10T13:19:29.489Z,96831.75
2023-05-10T13:22:01.422Z,96835.47
2023-05-10T13:24:33.039Z,96838.09
2023-05-10T13:27:04.912Z,96852.44
2023-05-10T13:29:36.601Z,96848.63
2023-05-10T13:32:08.628Z,96843.41
2023-05-10T13:34:41.049Z,96854.78
2023-05-10T13:37:12.853Z,96849.59
2023-05-10T13:39:45.169Z,96843.59
2023-05-10T13:42:19.467Z,96845.31
2023-05-10T13:44:52.588Z,96839.88
2023-05-10T13:47:25.001Z,96842.84
2023-05-10T13:49:57.177Z,96843.63
2023-05-10T13:52:29.575Z,96847.81
2023-05-10T13:55:02.234Z,96837.63
2023-05-10T13:57:33.913Z,96840.81
2023-05-10T14:00:06.273Z,96838.34
2023-05-10T14:02:39.548Z,96846.69
2023-05-10T14:05:11.201Z,96834.28
2023-05-10T14:07:42.781Z,96842.38
2023-05-10T14:10:14.261Z,96841.53
2023-05-10T14:12:45.899Z,96840.06
2023-05-10T14:15:17.598Z,96846.59
2023-05-10T14:17:49.646Z,96848.84
2023-05-10T14:20:21.229Z,96850.91
2023-05-10T14:22:52.818Z,96845.53
2023-05-10T14:25:25.199Z,96844.34
2023-05-10T14:27:56.973Z,96851.09
2023-05-10T14:30:29.306Z,96843.78
2023-05-10T14:33:02.900Z,96843.31
2023-05-10T14:35:35.093Z,96835.88
2023-05-10T14:38:06.903Z,96838.72
2023-05-10T14:40:38.781Z,96836.56
2023-05-10T14:43:10.731Z,96831.72
2023-05-10T14:45:42.732Z,96835.44
2023-05-10T14:48:14.430Z,96828.25
2023-05-10T14:50:47.379Z,96834.59
2023-05-10T14:53:19.475Z,96823.78
2023-05-10T14:55:51.449Z,96823.66
2023-05-10T14:58:23.139Z,96830.47
2023-05-10T15:00:55.156Z,96830.66
2023-05-10T15:03:30.009Z,96827.53
2023-05-10T15:06:02.387Z,96838.78
2023-05-10T15:08:33.958Z,96841.28
2023-05-10T15:11:05.721Z,96823.66
2023-05-10T15:13:37.625Z,96827.47
2023-05-10T15:16:10.108Z,96823.44
2023-05-10T15:18:42.084Z,96832.19
2023-05-10T15:21:14.330Z,96820.28
2023-05-10T15:23:46.308Z,96825.91
2023-05-10T15:26:18.266Z,96830.41
2023-05-10T15:28:50.015Z,96839.75
2023-05-10T15:31:22.104Z,96837.16
2023-05-10T15:33:58.791Z,96833.75
2023-05-10T15:36:32.806Z,96844.50
2023-05-10T15:39:04.827Z,96849.69
2023-05-10T15:41:36.869Z,96848.47
2023-05-10T15:44:09.891Z,96847.28
2023-05-10T15:46:42.146Z,96844.81
2023-05-10T15:49:14.281Z,96851.25
2023-05-10T15:51:46.291Z,96846.13
2023-05-10T15:54:19.028Z,96848.72
2023-05-10T15:56:51.111Z,96847.31
2023-05-10T15:59:23.155Z,96848.00
2023-05-10T16:01:55.389Z,96848.00
2023-05-10T16:04:27.619Z,96848.41
2023-05-10T16:07:00.172Z,96850.31
2023-05-10T16:09:31.993Z,96852.94
2023-05-10T16:12:04.253Z,96861.00
2023-05-10T16:14:36.178Z,96856.97
2023-05-10T16:17:08.022Z,96855.94
2023-05-10T16:19:39.727Z,96857.06
2023-05-10T16:22:11.508Z,96856.38
2023-05-10T16:24:43.841Z,96865.31
2023-05-10T16:27:15.473Z,96862.28
2023-05-10T16:29:47.926Z,96861.91
2023-05-10T16:32:19.723Z,96855.78
2023-05-10T16:34:51.394Z,96860.66
2023-05-10T16:37:23.072Z,96865.50
2023-05-10T16:39:54.687Z,96864.41
2023-05-10T16:42:27.536Z,96863.59
2023-05-10T16:44:59.282Z,96864.59
2023-05-10T16:47:30.957Z,96870.25
2023-05-10T16:50:05.065Z,96857.13
2023-05-10T16:52:36.986Z,96863.34
2023-05-10T16:55:08.917Z,96869.13
2023-05-10T16:57:40.698Z,96860.66
2023-05-10T17:00:13.694Z,96860.03
2023-05-10T17:02:46.360Z,96854.00
2023-05-10T17:05:18.690Z,96853.56
2023-05-10T17:07:50.516Z,96856.38
2023-05-10T17:10:22.437Z,96857.59
2023-05-10T17:12:54.333Z,96854.00
2023-05-10T17:15:26.327Z,96854.34
2023-05-10T17:17:58.424Z,96861.19
2023-05-10T17:20:30.229Z,96856.50
2023-05-10T17:23:02.279Z,96841.00
2023-05-10T17:25:35.404Z,96851.00
2023-05-10T17:28:07.536Z,96851.56
2023-05-10T17:30:39.349Z,96849.63
2023-05-10T17:33:11.459Z,96840.00
2023-05-10T17:35:45.177Z,96845.63
2023-05-10T17:38:17.972Z,96847.88
2023-05-10T17:40:51.388Z,96840.53
2023-05-10T17:43:23.453Z,96843.56
2023-05-10T17:45:55.706Z,96849.75
2023-05-10T17:48:27.647Z,96845.09
2023-05-10T17:51:00.114Z,96841.13
2023-05-10T17:53:33.751Z,96844.03
2023-05-10T17:56:06.507Z,96849.34
2023-05-10T17:58:39.790Z,96846.13
2023-05-10T18:01:12.544Z,96852.03
2023-05-10T18:03:44.734Z,96853.19
2023-05-10T18:06:16.825Z,96859.69
2023-05-10T18:08:50.117Z,96860.75
2023-05-10T18:11:22.112Z,96861.84
2023-05-10T18:13:54.118Z,96864.22
2023-05-10T18:16:27.036Z,96861.88
2023-05-10T18:18:59.180Z,96862.91
2023-05-10T18:21:31.295Z,96861.19
2023-05-10T18:24:05.453Z,96863.50
2023-05-10T18:26:37.431Z,96867.63
2023-05-10T18:29:09.705Z,96867.03
2023-05-10T18:31:41.673Z,96870.50
2023-05-10T18:34:13.464Z,96872.66
2023-05-10T18:36:45.266Z,96873.50
2023-05-10T18:39:16.925Z,96870.91
2023-05-10T18:41:49.841Z,96875.94
2023-05-10T18:44:21.583Z,96875.75
2023-05-10T18:46:53.935Z,96873.94
2023-05-10T18:49:26.376Z,96875.81
2023-05-10T18:51:58.108Z,96875.56
2023-05-10T18:54:29.877Z,96882.53
2023-05-10T18:57:01.772Z,96876.66
2023-05-10T18:59:33.919Z,96874.75
2023-05-10T19:02:05.761Z,96882.38
2023-05-10T19:04:37.536Z,96879.19
2023-05-10T19:07:09.285Z,96884.44
2023-05-10T19:09:41.130Z,96883.78
2023-05-10T19:12:13.417Z,96889.00
2023-05-10T19:14:45.344Z,96886.16
2023-05-10T19:17:18.433Z,96886.00
2023-05-10T19:19:51.407Z,96886.34
2023-05-10T19:22:35.332Z,96885.53
2023-05-10T19:25:15.744Z,96880.25
2023-05-10T19:27:47.986Z,96886.09
2023-05-10T19:30:20.180Z,96897.56
2023-05-10T19:32:53.509Z,96898.19
2023-05-10T19:35:26.479Z,96896.47
2023-05-10T19:37:59.463Z,96900.97
2023-05-10T19:40:35.021Z,96897.19
2023-05-10T19:43:07.356Z,96893.19
2023-05-10T19:45:39.882Z,96895.81
2023-05-10T19:48:13.507Z,96893.41
2023-05-10T19:50:46.154Z,96887.44
2023-05-10T19:53:17.985Z,96894.53
2023-05-10T19:55:50.131Z,96892.03
2023-05-10T19:58:22.889Z,96894.97
2023-05-10T20:00:55.143Z,96902.28
2023-05-10T20:03:27.573Z,96896.47
2023-05-10T20:06:00.907Z,96893.63
2023-05-10T20:08:32.769Z,96893.22
2023-05-10T20:11:05.727Z,96893.56
2023-05-10T20:13:38.260Z,96892.34
2023-05-10T20:16:11.363Z,96892.59
2023-05-10T20:18:43.663Z,96887.91
2023-05-10T20:21:16.617Z,96893.66
2023-05-10T20:23:48.780Z,96894.19
2023-05-10T20:26:21.542Z,96897.56
2023-05-10T20:28:53.484Z,96906.56
2023-05-10T20:31:26.580Z,96900.50
2023-05-10T20:33:58.934Z,96898.28
2023-05-10T20:36:31.230Z,96898.44
2023-05-10T20:39:03.401Z,96898.19
2023-05-10T20:41:35.316Z,96903.25
2023-05-10T20:44:07.579Z,96898.03
2023-05-10T20:46:41.292Z,96906.53
2023-05-10T20:49:13.481Z,96898.84
2023-05-10T20:51:45.167Z,96901.53
2023-05-10T20:54:16.916Z,96907.16
2023-05-10T20:56:48.568Z,96900.41
2023-05-10T20:59:20.167Z,96909.72
2023-05-10T21:01:51.935Z,96911.16
2023-05-10T21:04:24.577Z,96912.41
2023-05-10T21:06:56.359Z,96907.69
2023-05-10T21:09:29.127Z,96918.19
2023-05-10T21:12:00.916Z,96908.94
2023-05-10T21:14:32.807Z,96911.63
2023-05-10T21:17:04.811Z,96915.28
2023-05-10T21:19:36.512Z,96905.94
2023-05-10T21:22:08.699Z,96907.81
2023-05-10T21:24:40.357Z,96905.63
2023-05-10T21:27:12.166Z,96911.00
2023-05-10T21:29:43.880Z,96908.78
2023-05-10T21:32:16.078Z,96899.63
2023-05-10T21:34:47.815Z,96905.44
2023-05-10T21:37:20.021Z,96913.53
2023-05-10T21:39:53.219Z,96909.72
2023-05-10T21:42:25.645Z,96905.88
2023-05-10T21:44:57.486Z,96899.41
2023-05-10T21:47:29.911Z,96892.59
2023-05-10T21:50:02.842Z,96890.44
2023-05-10T21:52:35.067Z,96891.88
2023-05-10T21:55:07.560Z,96888.63
2023-05-10T21:57:39.587Z,96892.34
2023-05-10T22:00:13.602Z,96889.34
2023-05-10T22:02:46.169Z,96880.16
2023-05-10T22:05:18.772Z,96879.69
2023-05-10T22:07:50.617Z,96885.84
2023-05-10T22:10:22.536Z,96890.97
2023-05-10T22:12:54.396Z,96892.34
2023-05-10T22:15:26.803Z,96888.34
2023-05-10T22:17:59.697Z,96896.06
2023-05-10T22:20:32.574Z,96898.38
2023-05-10T22:23:04.462Z,96898.22
2023-05-10T22:25:36.453Z,96896.94
2023-05-10T22:28:08.585Z,96903.84
2023-05-10T22:30:42.470Z,96897.28
2023-05-10T22:33:14.411Z,96902.09
2023-05-10T22:35:46.238Z,96897.34
2023-05-10T22:38:18.611Z,96903.69
2023-05-10T22:40:50.750Z,96908.63
2023-05-10T22:43:23.287Z,96908.13
2023-05-10T22:45:55.466Z,96898.31
2023-05-10T22:48:28.954Z,96901.34
2023-05-10T22:51:01.603Z,96900.94
2023-05-10T22:53:33.260Z,96902.25
2023-05-10T22:56:06.231Z,96900.53
2023-05-10T22:58:38.214Z,96902.34
2023-05-10T23:01:12.538Z,96900.66
2023-05-10T23:03:44.346Z,96906.63
2023-05-10T23:06:16.334Z,96902.44
2023-05-10T23:08:48.234Z,96905.47
2023-05-10T23:11:20.006Z,96904.50
2023-05-10T23:13:51.661Z,96901.44
2023-05-10T23:16:23.260Z,96892.53
2023-05-10T23:18:55.645Z,96892.13
2023-05-10T23:21:27.956Z,96891.66
2023-05-10T23:24:01.062Z,96895.38
2023-05-10T23:26:32.686Z,96889.09
2023-05-10T23:29:04.339Z,96896.28
2023-05-10T23:31:36.026Z,96895.19
2023-05-10T23:34:07.776Z,96893.97
2023-05-10T23:36:39.510Z,96880.88
2023-05-10T23:39:11.134Z,96884.91
2023-05-10T23:41:42.819Z,96875.78
2023-05-10T23:44:14.531Z,96879.81
2023-05-10T23:46:46.196Z,96881.00
2023-05-10T23:49:17.814Z,96867.56
2023-05-10T23:51:49.502Z,96876.78
2023-05-10T23:54:21.226Z,96871.94
2023-05-10T23:56:53.141Z,96870.63
2023-05-10T23:59:25.394Z,96871.94
